MA44 weather

Trade Wind Airport
Oak Bluffs, Massachusetts, United States

Public forecast

Using degrees Fahrenheit for public forecast. Weather courtesy of forecast.io.

METAR (pilot weather report)

Closest report is Martha's Vineyard Airport, 3.5 nm (6.5 km) SW. Retrieved 2019/07/23 06:39 UTC (11 minutes ago):

KMVY 230639Z AUTO 25005KT 8SM SCT004 21/21 A2975 RMK AO2 T02110206

TAF (pilot weather forecast)

Closest forecast is Cape Cod Coast Guard Air Station, 13.2 nm (24.4 km) N. Retrieved 2019/07/23 06:36 UTC (14 minutes ago):

TAF KFMH 230534Z 2306/2406 02006KT P6SM VCSH OVC008 FM231300 04007KT 4SM SHRA OVC008 TEMPO 2313/2316 2SM TSRA OVC007CB FM231800 36012G20KT 3SM BR VCSH OVC008 FM232100 36009KT P6SM VCSH OVC008 FM240500 03003KT P6SM VCSH OVC015